CheckWX is a tool to help pilots better visualize weather data.  It is not intended as a substitute for an official pre-flight weather briefing.

01:06:56 UTC

EFKT METAR
Kittila Airport
Kittila, Finland
Current

17 mins ago

EFKT 240050Z AUTO VRB01KT 9999 -RA NSC 03/01 Q1010
Observed
Feb-24 @ 00:50 UTC
Wind
  • Variable at 1 KTS
Visibility
10,000+ meters
Flight Rules
VFR
Conditions
Light Rain
Cloud Levels
  • Clear skies
Temperature
C / 37°F
Dewpoint
C / 34°F
Humidity
87%
Altimeter
29.82" Hg
Pressure
1009.92 hPa
Previous

47 mins ago

EFKT 240020Z AUTO 24005KT 210V270 9999 -SHRA NSC 04/02 Q1011
Observed
Feb-24 @ 00:20 UTC
Wind
  • 240° at 5 KTS
Visibility
10,000+ meters
Flight Rules
VFR
Conditions
Light Rain
Cloud Levels
  • Clear skies
Temperature
C / 39°F
Dewpoint
C / 36°F
Humidity
87%
Altimeter
29.85" Hg
Pressure
1010.92 hPa
Previous

1 hour ago

EFKT 232350Z AUTO 25007KT 220V280 9999 -SHRA OVC049 04/01 Q1011
Observed
Feb-23 @ 23:50 UTC
Wind
  • 250° at 7 KTS
Visibility
10,000+ meters
Flight Rules
VFR
Conditions
Light Rain
Cloud Levels
  • Overcast at 4,900' AGL
Temperature
C / 39°F
Dewpoint
C / 34°F
Humidity
81%
Altimeter
29.85" Hg
Pressure
1010.92 hPa